Time;durP1;ratioP1;P1;durP2;ratioP2;P2;SDS_P1;SDS_P2;PMS_P1;PMS_P2;Temp;Humidity;BMP_temperature;BMP_pressure;BME280_temperature;BME280_humidity;BME280_pressure;Samples;Min_cycle;Max_cycle;Signal;HPM_P1;HPM_P2
2022/05/15 00:02:31;;;;;;;1.97;1.30;;;;;;;;;;5032661;28;20205;-63
2022/05/15 00:05:18;;;;;;;2.33;1.20;;;;;;;;;;5036443;28;20352;-62
2022/05/15 00:08:06;;;;;;;1.73;1.20;;;;;;;;;;5032972;28;20392;-62
2022/05/15 00:10:54;;;;;;;1.80;1.33;;;;;;;;;;5032194;28;20231;-61
2022/05/15 00:13:41;;;;;;;1.83;1.20;;;;;;;;;;5032194;28;20215;-61
2022/05/15 00:16:28;;;;;;;1.63;1.47;;;;;;;;;;5039140;28;20263;-62
2022/05/15 00:19:16;;;;;;;1.93;1.37;;;;;;;;;;5035710;28;20213;-61
2022/05/15 00:22:04;;;;;;;2.47;1.50;;;;;;;;;;5037869;28;20240;-61
2022/05/15 00:24:51;;;;;;;1.80;1.40;;;;;;;;;;5029258;28;20248;-61
2022/05/15 00:27:37;;;;;;;3.13;1.50;;;;;;;;;;5034829;28;20210;-61
2022/05/15 00:30:24;;;;;;;2.00;1.50;;;;;;;;;;5031695;28;20292;-62
2022/05/15 00:33:12;;;;;;;1.77;1.40;;;;;;;;;;5033334;28;20288;-61
2022/05/15 00:36:00;;;;;;;1.30;1.20;;;;;;;;;;5035660;28;20333;-62
2022/05/15 00:38:47;;;;;;;2.13;1.40;;;;;;;;;;5033344;28;20287;-62
2022/05/15 00:41:34;;;;;;;1.93;1.30;;;;;;;;;;5030751;28;20242;-62
2022/05/15 00:44:22;;;;;;;1.63;1.40;;;;;;;;;;5031826;28;20259;-61
2022/05/15 00:47:09;;;;;;;2.30;1.23;;;;;;;;;;5034328;28;20217;-62
2022/05/15 00:49:57;;;;;;;1.77;1.40;;;;;;;;;;5032271;28;20230;-62
2022/05/15 00:52:48;;;;;;;2.93;1.53;;;;;;;;;;5033503;28;20730;-61
2022/05/15 00:55:39;;;;;;;1.60;1.37;;;;;;;;;;5032517;28;20211;-62
2022/05/15 00:58:32;;;;;;;1.90;1.23;;;;;;;;;;5034711;28;20215;-60
2022/05/15 01:01:19;;;;;;;1.33;1.23;;;;;;;;;;5032603;28;20282;-61
2022/05/15 01:04:07;;;;;;;2.13;1.37;;;;;;;;;;5036147;28;20233;-62
2022/05/15 01:06:54;;;;;;;1.90;1.40;;;;;;;;;;5032004;28;20600;-61
2022/05/15 01:09:42;;;;;;;1.90;1.30;;;;;;;;;;5030509;28;20290;-61
2022/05/15 01:12:29;;;;;;;1.40;1.20;;;;;;;;;;5034685;28;20341;-61
2022/05/15 01:15:20;;;;;;;1.87;1.23;;;;;;;;;;5033525;28;20666;-61
2022/05/15 01:18:08;;;;;;;2.33;1.13;;;;;;;;;;5032355;28;20835;-61
2022/05/15 01:20:58;;;;;;;2.67;1.60;;;;;;;;;;5033963;28;20256;-62
2022/05/15 01:23:45;;;;;;;1.30;1.20;;;;;;;;;;5031549;28;20933;-62
2022/05/15 01:26:33;;;;;;;1.57;1.20;;;;;;;;;;5035108;28;20250;-62
2022/05/15 01:29:28;;;;;;;1.53;1.10;;;;;;;;;;5034876;28;20630;-62
2022/05/15 01:32:15;;;;;;;1.63;1.20;;;;;;;;;;5033297;28;20246;-62
2022/05/15 01:35:02;;;;;;;1.87;1.53;;;;;;;;;;5036960;28;20884;-61
2022/05/15 01:37:51;;;;;;;1.27;1.17;;;;;;;;;;5032936;28;20214;-61
2022/05/15 01:40:39;;;;;;;2.20;1.87;;;;;;;;;;5033586;28;20290;-61
2022/05/15 01:43:26;;;;;;;3.40;1.57;;;;;;;;;;5033153;28;20321;-61
2022/05/15 01:46:14;;;;;;;2.10;1.47;;;;;;;;;;5032481;28;20691;-61
2022/05/15 01:49:04;;;;;;;1.83;1.20;;;;;;;;;;5029794;28;20273;-62
2022/05/15 01:51:50;;;;;;;1.93;1.30;;;;;;;;;;5032424;28;20219;-61
2022/05/15 01:54:39;;;;;;;1.37;1.27;;;;;;;;;;5029715;28;20241;-60
2022/05/15 01:57:26;;;;;;;2.13;1.50;;;;;;;;;;5027978;28;20217;-62
2022/05/15 02:00:20;;;;;;;1.87;1.40;;;;;;;;;;5035217;28;20259;-62
2022/05/15 02:03:07;;;;;;;1.60;1.10;;;;;;;;;;5029338;28;20853;-61
2022/05/15 02:05:54;;;;;;;1.73;1.40;;;;;;;;;;5029349;28;20663;-62
2022/05/15 02:08:42;;;;;;;2.73;1.40;;;;;;;;;;5037320;28;20236;-61
2022/05/15 02:11:31;;;;;;;1.60;1.50;;;;;;;;;;5032363;28;20218;-61
2022/05/15 02:14:18;;;;;;;2.10;1.57;;;;;;;;;;5033916;28;20282;-62
2022/05/15 02:17:05;;;;;;;2.50;1.40;;;;;;;;;;5031152;28;20218;-61
2022/05/15 02:19:52;;;;;;;1.47;1.37;;;;;;;;;;5030213;28;20215;-61
2022/05/15 02:22:39;;;;;;;1.40;1.30;;;;;;;;;;5031393;28;20242;-62
2022/05/15 02:25:27;;;;;;;1.50;1.40;;;;;;;;;;5035864;28;20258;-61
2022/05/15 02:28:15;;;;;;;4.07;1.33;;;;;;;;;;5035701;28;20246;-61
2022/05/15 02:31:02;;;;;;;2.03;1.50;;;;;;;;;;5029823;28;20323;-61
2022/05/15 02:33:50;;;;;;;1.30;1.10;;;;;;;;;;5030481;28;20269;-61
2022/05/15 02:36:36;;;;;;;2.67;1.37;;;;;;;;;;5029876;28;20216;-62
2022/05/15 02:39:23;;;;;;;2.00;1.60;;;;;;;;;;5030421;28;20729;-62
2022/05/15 02:42:10;;;;;;;1.70;1.27;;;;;;;;;;5032142;28;20265;-61
2022/05/15 02:44:59;;;;;;;1.60;1.43;;;;;;;;;;5030942;28;20320;-61
2022/05/15 02:47:46;;;;;;;1.73;1.40;;;;;;;;;;5028318;28;20991;-61
2022/05/15 02:53:39;;;;;;;0.83;0.83;;;;;;;;;;5028570;28;20639;-64
2022/05/15 02:56:29;;;;;;;1.70;1.30;;;;;;;;;;5030726;28;20214;-61
2022/05/15 02:59:16;;;;;;;2.17;1.53;;;;;;;;;;5031876;28;20754;-61
2022/05/15 03:02:05;;;;;;;1.80;1.50;;;;;;;;;;5030157;28;20698;-61
2022/05/15 03:04:52;;;;;;;1.43;1.20;;;;;;;;;;5034464;28;20710;-62
2022/05/15 03:07:39;;;;;;;1.30;1.20;;;;;;;;;;5036111;28;20203;-62
2022/05/15 03:10:26;;;;;;;1.60;1.33;;;;;;;;;;5028052;28;20222;-62
2022/05/15 03:13:13;;;;;;;1.67;1.33;;;;;;;;;;5031946;28;20676;-62
2022/05/15 03:16:00;;;;;;;2.73;1.50;;;;;;;;;;5030443;28;20281;-62
2022/05/15 03:18:50;;;;;;;2.50;1.50;;;;;;;;;;5031121;28;20210;-62
2022/05/15 03:21:38;;;;;;;1.50;1.40;;;;;;;;;;5033509;28;20657;-61
2022/05/15 03:24:24;;;;;;;2.80;1.50;;;;;;;;;;5030369;28;20357;-61
2022/05/15 03:27:11;;;;;;;1.53;1.30;;;;;;;;;;5029731;28;20242;-62
2022/05/15 03:29:58;;;;;;;1.50;1.33;;;;;;;;;;5032355;28;20254;-61
2022/05/15 03:32:45;;;;;;;1.50;1.40;;;;;;;;;;5031381;28;20269;-61
2022/05/15 03:35:33;;;;;;;1.70;1.60;;;;;;;;;;5027179;28;20287;-62
2022/05/15 03:38:20;;;;;;;1.93;1.57;;;;;;;;;;5033422;28;20237;-61
2022/05/15 03:41:08;;;;;;;1.47;1.37;;;;;;;;;;5035094;28;20206;-62
2022/05/15 03:43:55;;;;;;;2.40;1.20;;;;;;;;;;5029425;28;20634;-63
2022/05/15 03:46:43;;;;;;;2.07;1.60;;;;;;;;;;5039047;28;20349;-61
2022/05/15 03:49:30;;;;;;;1.77;1.60;;;;;;;;;;5032428;28;20317;-61
2022/05/15 03:52:18;;;;;;;2.40;1.43;;;;;;;;;;5031742;28;20271;-62
2022/05/15 03:55:06;;;;;;;2.50;2.00;;;;;;;;;;5031951;28;20257;-62
2022/05/15 03:57:56;;;;;;;1.67;1.37;;;;;;;;;;5028705;28;20292;-62
2022/05/15 04:00:42;;;;;;;1.43;1.30;;;;;;;;;;5028444;28;20211;-62
2022/05/15 04:03:29;;;;;;;1.50;1.33;;;;;;;;;;5031207;28;20235;-62
2022/05/15 04:06:16;;;;;;;1.63;1.47;;;;;;;;;;5031650;28;20215;-62
2022/05/15 04:09:05;;;;;;;2.00;1.40;;;;;;;;;;5029041;28;20367;-62
2022/05/15 04:11:52;;;;;;;2.13;1.43;;;;;;;;;;5030949;28;20297;-61
2022/05/15 04:14:39;;;;;;;1.60;1.30;;;;;;;;;;5028576;28;20334;-61
2022/05/15 04:17:27;;;;;;;1.23;1.10;;;;;;;;;;5033609;28;20218;-61
2022/05/15 04:20:15;;;;;;;1.60;1.50;;;;;;;;;;5028473;28;20223;-62
2022/05/15 04:23:03;;;;;;;1.50;1.40;;;;;;;;;;5031415;28;20279;-62
2022/05/15 04:25:51;;;;;;;2.03;1.57;;;;;;;;;;5026255;28;20228;-62
2022/05/15 04:28:38;;;;;;;2.27;1.37;;;;;;;;;;5029219;28;20317;-62
2022/05/15 04:31:25;;;;;;;1.40;1.30;;;;;;;;;;5029116;28;20677;-62
2022/05/15 04:34:12;;;;;;;2.77;1.73;;;;;;;;;;5031598;28;20244;-62
2022/05/15 04:36:59;;;;;;;1.67;1.40;;;;;;;;;;5030920;28;20750;-62
2022/05/15 04:39:46;;;;;;;1.50;1.40;;;;;;;;;;5036699;28;20290;-61
2022/05/15 04:42:34;;;;;;;1.50;1.30;;;;;;;;;;5034549;28;20269;-61
2022/05/15 04:45:21;;;;;;;1.47;1.37;;;;;;;;;;5031807;28;20312;-62
2022/05/15 04:48:10;;;;;;;2.17;1.47;;;;;;;;;;5038454;28;20197;-62
2022/05/15 04:50:57;;;;;;;1.53;1.20;;;;;;;;;;5035125;28;20648;-62
2022/05/15 04:53:44;;;;;;;2.50;1.60;;;;;;;;;;5032857;28;20235;-62
2022/05/15 04:56:31;;;;;;;2.07;1.87;;;;;;;;;;5030912;28;20208;-62
2022/05/15 04:59:19;;;;;;;1.80;1.53;;;;;;;;;;5036503;28;20291;-62
2022/05/15 05:02:06;;;;;;;1.50;1.40;;;;;;;;;;5032634;28;20255;-61
2022/05/15 05:04:53;;;;;;;1.30;1.20;;;;;;;;;;5031621;28;20738;-62
2022/05/15 05:07:40;;;;;;;1.87;1.50;;;;;;;;;;5032622;28;20208;-62
2022/05/15 05:10:27;;;;;;;1.23;1.10;;;;;;;;;;5034582;28;20226;-62
2022/05/15 05:13:14;;;;;;;1.57;1.47;;;;;;;;;;5031668;28;20265;-62
2022/05/15 05:16:03;;;;;;;2.20;1.30;;;;;;;;;;5028482;28;20208;-62
2022/05/15 05:18:50;;;;;;;1.67;1.33;;;;;;;;;;5033519;28;20311;-62
2022/05/15 05:21:37;;;;;;;1.37;1.27;;;;;;;;;;5034351;28;20213;-62
2022/05/15 05:24:24;;;;;;;1.40;1.10;;;;;;;;;;5031887;28;20290;-62
2022/05/15 05:27:11;;;;;;;1.90;1.20;;;;;;;;;;5033686;28;20242;-62
2022/05/15 05:29:58;;;;;;;1.53;1.37;;;;;;;;;;5038721;28;20686;-62
2022/05/15 05:32:46;;;;;;;1.67;1.37;;;;;;;;;;5032822;28;20250;-62
2022/05/15 05:35:34;;;;;;;1.70;1.20;;;;;;;;;;5031425;28;20225;-61
2022/05/15 05:38:21;;;;;;;1.43;1.33;;;;;;;;;;5035298;28;20221;-63
2022/05/15 05:41:08;;;;;;;1.37;1.10;;;;;;;;;;5034096;28;20222;-62
2022/05/15 05:43:54;;;;;;;1.73;1.43;;;;;;;;;;5033124;28;20282;-62
2022/05/15 05:46:41;;;;;;;1.33;1.20;;;;;;;;;;5030145;28;20751;-61
2022/05/15 05:49:30;;;;;;;1.00;0.90;;;;;;;;;;5029154;28;20656;-63
2022/05/15 05:52:17;;;;;;;1.30;1.10;;;;;;;;;;5030593;28;20341;-63
2022/05/15 05:55:05;;;;;;;1.10;1.00;;;;;;;;;;5031653;28;20207;-62
2022/05/15 05:57:53;;;;;;;2.23;1.23;;;;;;;;;;5030463;28;20284;-63
2022/05/15 06:00:40;;;;;;;1.50;1.20;;;;;;;;;;5030070;28;20216;-63
2022/05/15 06:06:32;;;;;;;1.40;1.30;;;;;;;;;;5031768;28;20234;-61
2022/05/15 06:09:19;;;;;;;1.50;1.40;;;;;;;;;;5031143;28;20304;-60
2022/05/15 06:12:07;;;;;;;1.93;1.27;;;;;;;;;;5039513;28;20210;-62
2022/05/15 06:14:54;;;;;;;0.87;0.83;;;;;;;;;;5030998;28;20313;-61
2022/05/15 06:17:41;;;;;;;1.00;1.00;;;;;;;;;;5032241;28;20248;-60
2022/05/15 06:20:28;;;;;;;1.40;1.23;;;;;;;;;;5030795;28;20312;-63
2022/05/15 06:23:16;;;;;;;1.05;0.95;;;;;;;;;;5031190;28;20242;-62
2022/05/15 06:26:04;;;;;;;1.98;1.20;;;;;;;;;;5031613;28;20718;-61
2022/05/15 06:28:51;;;;;;;0.95;0.85;;;;;;;;;;5030332;28;20308;-61
2022/05/15 06:31:38;;;;;;;1.23;0.85;;;;;;;;;;5034474;28;20308;-62
2022/05/15 06:34:25;;;;;;;0.85;0.85;;;;;;;;;;5031125;28;20239;-62
2022/05/15 06:37:11;;;;;;;1.55;1.20;;;;;;;;;;5033074;28;20219;-62
2022/05/15 06:40:00;;;;;;;0.93;0.90;;;;;;;;;;5031582;28;20286;-61
2022/05/15 06:42:47;;;;;;;1.15;1.00;;;;;;;;;;5030239;28;20240;-60
2022/05/15 06:45:35;;;;;;;0.85;0.85;;;;;;;;;;5032791;28;20228;-60
2022/05/15 06:48:22;;;;;;;1.23;0.80;;;;;;;;;;5028512;28;20204;-59
2022/05/15 06:51:09;;;;;;;0.80;0.80;;;;;;;;;;5023301;28;20208;-59
2022/05/15 06:53:56;;;;;;;0.85;0.85;;;;;;;;;;5027068;28;20232;-64
2022/05/15 06:59:48;;;;;;;0.73;0.73;;;;;;;;;;5028824;28;20209;-59
2022/05/15 07:02:35;;;;;;;0.60;0.60;;;;;;;;;;5028749;28;20543;-60
2022/05/15 07:05:25;;;;;;;0.80;0.80;;;;;;;;;;5032307;28;20306;-59
2022/05/15 07:08:15;;;;;;;0.70;0.70;;;;;;;;;;5029640;28;20291;-60
2022/05/15 07:11:02;;;;;;;0.90;0.90;;;;;;;;;;5030524;28;20259;-61
2022/05/15 07:13:50;;;;;;;0.85;0.73;;;;;;;;;;5029616;28;20230;-60
2022/05/15 07:16:37;;;;;;;0.70;0.70;;;;;;;;;;5028395;28;20200;-60
2022/05/15 07:19:24;;;;;;;0.85;0.73;;;;;;;;;;5026121;28;20201;-61
2022/05/15 07:22:11;;;;;;;0.80;0.80;;;;;;;;;;5029868;28;20286;-61
2022/05/15 07:24:58;;;;;;;0.57;0.55;;;;;;;;;;5034477;28;20298;-60
2022/05/15 07:27:45;;;;;;;0.60;0.60;;;;;;;;;;5030913;28;20204;-63
2022/05/15 07:30:33;;;;;;;0.68;0.68;;;;;;;;;;5028627;28;20685;-61
2022/05/15 07:33:21;;;;;;;0.80;0.80;;;;;;;;;;5026369;28;20251;-61
2022/05/15 07:36:09;;;;;;;0.57;0.57;;;;;;;;;;5029846;28;20294;-61
2022/05/15 07:38:56;;;;;;;0.75;0.63;;;;;;;;;;5029235;28;20268;-61
2022/05/15 07:41:43;;;;;;;1.02;0.90;;;;;;;;;;5027432;28;20204;-61
2022/05/15 07:44:30;;;;;;;0.80;0.63;;;;;;;;;;5029554;28;20209;-61
2022/05/15 07:47:18;;;;;;;0.80;0.80;;;;;;;;;;5029268;28;20217;-61
2022/05/15 07:50:07;;;;;;;1.27;0.68;;;;;;;;;;5027666;28;20319;-62
2022/05/15 07:52:54;;;;;;;0.80;0.70;;;;;;;;;;5034458;28;20232;-60
2022/05/15 07:55:41;;;;;;;0.60;0.60;;;;;;;;;;5031299;28;20239;-61
2022/05/15 07:58:28;;;;;;;0.63;0.63;;;;;;;;;;5033507;28;20208;-61
2022/05/15 08:01:15;;;;;;;1.30;0.52;;;;;;;;;;5030723;28;20243;-61
2022/05/15 08:04:04;;;;;;;0.50;0.50;;;;;;;;;;5031383;28;20219;-61
2022/05/15 08:10:00;;;;;;;0.52;0.52;;;;;;;;;;4977401;28;20220;-61
2022/05/15 08:12:47;;;;;;;0.38;0.38;;;;;;;;;;5030506;28;20672;-61
2022/05/15 08:15:36;;;;;;;0.60;0.60;;;;;;;;;;5030202;28;20200;-61
2022/05/15 08:24:33;;;;;;;1.00;0.60;;;;;;;;;;5032184;28;20266;-62
2022/05/15 08:27:20;;;;;;;0.65;0.60;;;;;;;;;;5034888;28;20318;-61
2022/05/15 08:30:08;;;;;;;0.40;0.40;;;;;;;;;;5031586;28;20247;-61
2022/05/15 08:32:55;;;;;;;0.80;0.60;;;;;;;;;;5032069;28;20282;-61
2022/05/15 08:35:42;;;;;;;0.50;0.50;;;;;;;;;;5033941;28;20204;-59
2022/05/15 08:38:31;;;;;;;0.50;0.50;;;;;;;;;;5040123;28;20756;-59
2022/05/15 08:41:24;;;;;;;0.50;0.50;;;;;;;;;;5031775;28;20216;-59
2022/05/15 08:44:14;;;;;;;0.70;0.70;;;;;;;;;;5037686;28;20494;-57
2022/05/15 08:47:19;;;;;;;0.47;0.47;;;;;;;;;;5034701;28;20774;-59
2022/05/15 08:50:10;;;;;;;0.82;0.43;;;;;;;;;;5030354;28;20718;-59
2022/05/15 08:53:01;;;;;;;0.77;0.60;;;;;;;;;;5035427;28;20228;-60
2022/05/15 08:55:54;;;;;;;0.50;0.47;;;;;;;;;;5032022;28;20723;-60
2022/05/15 08:58:48;;;;;;;1.20;0.73;;;;;;;;;;5033464;28;20343;-60
2022/05/15 09:01:35;;;;;;;0.45;0.45;;;;;;;;;;5031802;28;20287;-60
2022/05/15 09:04:23;;;;;;;0.68;0.68;;;;;;;;;;5043048;28;20291;-61
2022/05/15 09:07:18;;;;;;;0.50;0.50;;;;;;;;;;5032588;28;20383;-61
2022/05/15 09:10:15;;;;;;;0.63;0.63;;;;;;;;;;5031127;28;20212;-61
2022/05/15 09:13:11;;;;;;;1.00;0.60;;;;;;;;;;5032631;28;20236;-61
2022/05/15 09:15:59;;;;;;;0.43;0.40;;;;;;;;;;5039710;28;20215;-62
2022/05/15 09:18:46;;;;;;;0.63;0.63;;;;;;;;;;5033554;28;20740;-61
2022/05/15 09:21:33;;;;;;;0.73;0.60;;;;;;;;;;5034548;28;20683;-62
2022/05/15 09:24:38;;;;;;;0.40;0.40;;;;;;;;;;5034900;28;20642;-62
2022/05/15 09:27:28;;;;;;;0.38;0.38;;;;;;;;;;5033801;28;20314;-61
2022/05/15 09:30:16;;;;;;;0.70;0.45;;;;;;;;;;5035615;28;20330;-62
2022/05/15 09:33:04;;;;;;;0.60;0.60;;;;;;;;;;5031552;28;20286;-61
2022/05/15 09:35:51;;;;;;;0.65;0.63;;;;;;;;;;5039147;28;20207;-62
2022/05/15 09:38:38;;;;;;;0.38;0.32;;;;;;;;;;5034048;28;20216;-60
2022/05/15 09:44:37;;;;;;;0.50;0.40;;;;;;;;;;5039437;28;20208;-61
2022/05/15 09:47:31;;;;;;;0.50;0.50;;;;;;;;;;5031268;28;20356;-61
2022/05/15 09:50:41;;;;;;;0.40;0.40;;;;;;;;;;5031595;28;21179;-61
2022/05/15 09:53:39;;;;;;;0.93;0.50;;;;;;;;;;5029565;28;20319;-62
2022/05/15 09:56:31;;;;;;;0.60;0.60;;;;;;;;;;5031033;28;20231;-61
2022/05/15 09:59:18;;;;;;;0.45;0.45;;;;;;;;;;5035624;28;20247;-61
2022/05/15 10:02:06;;;;;;;0.30;0.30;;;;;;;;;;5032593;28;20235;-60
2022/05/15 10:04:56;;;;;;;0.70;0.40;;;;;;;;;;5033318;28;20692;-60
2022/05/15 10:07:51;;;;;;;0.40;0.40;;;;;;;;;;5031803;28;20599;-60
2022/05/15 10:10:43;;;;;;;0.50;0.40;;;;;;;;;;5034053;28;20713;-61
2022/05/15 10:13:35;;;;;;;0.38;0.38;;;;;;;;;;5031941;28;20213;-60
2022/05/15 10:16:26;;;;;;;0.88;0.63;;;;;;;;;;5031370;28;20250;-61
2022/05/15 10:19:19;;;;;;;0.40;0.40;;;;;;;;;;5033421;28;20438;-61
2022/05/15 10:22:21;;;;;;;0.30;0.30;;;;;;;;;;5030251;28;20218;-61
2022/05/15 10:25:17;;;;;;;0.57;0.57;;;;;;;;;;5030550;28;20216;-62
2022/05/15 10:28:22;;;;;;;0.45;0.45;;;;;;;;;;5033075;28;20205;-62
2022/05/15 10:31:18;;;;;;;0.60;0.60;;;;;;;;;;5031997;28;20229;-60
2022/05/15 10:34:11;;;;;;;0.20;0.20;;;;;;;;;;5030336;28;20216;-61
2022/05/15 10:37:25;;;;;;;0.30;0.30;;;;;;;;;;5029865;28;20290;-61
2022/05/15 10:40:23;;;;;;;0.85;0.38;;;;;;;;;;5030778;28;20216;-61
2022/05/15 10:43:27;;;;;;;1.25;0.50;;;;;;;;;;5030472;28;20216;-60
2022/05/15 10:46:20;;;;;;;0.65;0.65;;;;;;;;;;5029892;28;20383;-61
2022/05/15 10:49:24;;;;;;;0.57;0.40;;;;;;;;;;5030901;28;20690;-61
2022/05/15 10:52:19;;;;;;;0.50;0.50;;;;;;;;;;5031864;28;20289;-60
2022/05/15 10:58:31;;;;;;;1.23;0.60;;;;;;;;;;5024881;28;20209;-61
2022/05/15 11:01:26;;;;;;;0.70;0.52;;;;;;;;;;5014364;28;20239;-61
2022/05/15 11:04:15;;;;;;;0.73;0.60;;;;;;;;;;5030591;28;20672;-59
2022/05/15 11:07:05;;;;;;;0.45;0.45;;;;;;;;;;5015127;28;20311;-61
2022/05/15 11:10:06;;;;;;;0.30;0.30;;;;;;;;;;5022521;28;20697;-61
2022/05/15 11:13:03;;;;;;;1.38;0.68;;;;;;;;;;5018872;28;20290;-61
2022/05/15 11:16:02;;;;;;;1.00;0.60;;;;;;;;;;5028548;28;20287;-61
2022/05/15 11:19:03;;;;;;;1.02;0.77;;;;;;;;;;5029874;28;20289;-60
2022/05/15 11:21:58;;;;;;;0.30;0.30;;;;;;;;;;5030200;28;20210;-60
2022/05/15 11:24:52;;;;;;;0.40;0.40;;;;;;;;;;5027484;28;20203;-61
2022/05/15 11:27:45;;;;;;;0.40;0.40;;;;;;;;;;5031261;28;20261;-61
2022/05/15 11:30:35;;;;;;;0.60;0.50;;;;;;;;;;5027931;28;20306;-60
2022/05/15 11:33:33;;;;;;;0.30;0.30;;;;;;;;;;5032068;28;20212;-61
2022/05/15 11:36:33;;;;;;;0.90;0.52;;;;;;;;;;5031966;28;20715;-61
2022/05/15 11:39:27;;;;;;;0.52;0.40;;;;;;;;;;5032528;28;20266;-61
2022/05/15 11:42:17;;;;;;;0.65;0.47;;;;;;;;;;5034324;28;20204;-62
2022/05/15 11:45:38;;;;;;;1.00;0.40;;;;;;;;;;5033755;28;20212;-62
2022/05/15 11:48:31;;;;;;;0.50;0.43;;;;;;;;;;5034141;28;20215;-61
2022/05/15 11:51:31;;;;;;;0.60;0.50;;;;;;;;;;5017735;28;20236;-60
2022/05/15 11:54:30;;;;;;;0.75;0.47;;;;;;;;;;5013076;28;20232;-61
2022/05/15 11:57:36;;;;;;;0.40;0.40;;;;;;;;;;5015445;28;20693;-61
2022/05/15 12:00:25;;;;;;;0.35;0.35;;;;;;;;;;5011188;28;20291;-61
2022/05/15 12:03:42;;;;;;;1.92;0.57;;;;;;;;;;5013567;28;20302;-60
2022/05/15 12:06:32;;;;;;;0.40;0.40;;;;;;;;;;5020205;28;20271;-61
2022/05/15 12:09:34;;;;;;;0.30;0.30;;;;;;;;;;5021500;28;20227;-61
2022/05/15 12:13:02;;;;;;;1.02;0.30;;;;;;;;;;5019124;28;20219;-61
2022/05/15 12:16:09;;;;;;;0.85;0.70;;;;;;;;;;5017336;28;20211;-62
2022/05/15 12:19:03;;;;;;;0.77;0.35;;;;;;;;;;5017201;28;20288;-60
2022/05/15 12:21:53;;;;;;;0.40;0.40;;;;;;;;;;5013705;28;20259;-61
2022/05/15 12:24:44;;;;;;;0.77;0.50;;;;;;;;;;5016191;28;20215;-61
2022/05/15 12:27:33;;;;;;;0.30;0.30;;;;;;;;;;5015199;28;20260;-61
2022/05/15 12:30:23;;;;;;;0.20;0.20;;;;;;;;;;5014767;28;20687;-61
2022/05/15 12:33:12;;;;;;;0.30;0.30;;;;;;;;;;5014167;28;20216;-61
2022/05/15 12:36:00;;;;;;;0.47;0.47;;;;;;;;;;5018204;28;20230;-62
2022/05/15 12:38:52;;;;;;;0.40;0.40;;;;;;;;;;5012148;28;20299;-61
2022/05/15 12:41:44;;;;;;;0.73;0.47;;;;;;;;;;5016781;28;20270;-61
2022/05/15 12:44:33;;;;;;;0.52;0.40;;;;;;;;;;5016521;28;20288;-61
2022/05/15 12:47:24;;;;;;;1.30;0.52;;;;;;;;;;5021601;28;20237;-62
2022/05/15 12:50:16;;;;;;;0.35;0.35;;;;;;;;;;5035230;28;20236;-60
2022/05/15 12:53:05;;;;;;;1.08;0.50;;;;;;;;;;5034418;28;20327;-61
2022/05/15 12:55:53;;;;;;;0.88;0.43;;;;;;;;;;5039317;28;20215;-60
2022/05/15 12:58:41;;;;;;;0.30;0.30;;;;;;;;;;5037013;28;20337;-61
2022/05/15 13:01:31;;;;;;;0.57;0.50;;;;;;;;;;5032878;28;20219;-60
2022/05/15 13:04:21;;;;;;;1.75;0.50;;;;;;;;;;5037333;28;20203;-61
2022/05/15 13:07:08;;;;;;;0.55;0.52;;;;;;;;;;5032929;28;20318;-60
2022/05/15 13:10:06;;;;;;;0.73;0.50;;;;;;;;;;5031055;28;20240;-61
2022/05/15 13:12:55;;;;;;;0.50;0.50;;;;;;;;;;5030468;28;20346;-61
2022/05/15 13:15:48;;;;;;;0.65;0.50;;;;;;;;;;5041748;28;20675;-61
2022/05/15 13:18:37;;;;;;;0.40;0.35;;;;;;;;;;5032685;28;20287;-61
2022/05/15 13:21:27;;;;;;;0.40;0.40;;;;;;;;;;5038974;28;20241;-61
2022/05/15 13:24:16;;;;;;;0.63;0.40;;;;;;;;;;5036826;28;20266;-61
2022/05/15 13:27:05;;;;;;;0.22;0.22;;;;;;;;;;5034461;28;20232;-61
2022/05/15 13:29:53;;;;;;;0.45;0.40;;;;;;;;;;5034600;28;20334;-61
2022/05/15 13:32:43;;;;;;;0.30;0.30;;;;;;;;;;5036047;28;20226;-61
2022/05/15 13:35:35;;;;;;;1.17;0.40;;;;;;;;;;5032963;28;20719;-60
2022/05/15 13:38:26;;;;;;;0.83;0.50;;;;;;;;;;5031148;28;20216;-61
2022/05/15 13:44:20;;;;;;;0.37;0.37;;;;;;;;;;5034097;28;20207;-61
2022/05/15 13:47:09;;;;;;;0.40;0.30;;;;;;;;;;5025277;28;20364;-62
2022/05/15 13:49:56;;;;;;;0.30;0.30;;;;;;;;;;5027976;28;20767;-61
2022/05/15 13:52:43;;;;;;;0.57;0.23;;;;;;;;;;5034016;28;20240;-59
2022/05/15 13:55:39;;;;;;;0.40;0.30;;;;;;;;;;5025218;28;20289;-60
2022/05/15 13:58:41;;;;;;;0.40;0.40;;;;;;;;;;5027920;28;20214;-61
2022/05/15 14:01:33;;;;;;;0.50;0.50;;;;;;;;;;5027614;28;20209;-61
2022/05/15 14:04:26;;;;;;;0.40;0.40;;;;;;;;;;5028511;28;20423;-61
2022/05/15 14:07:25;;;;;;;0.27;0.27;;;;;;;;;;5032449;28;20709;-61
2022/05/15 14:10:19;;;;;;;0.20;0.20;;;;;;;;;;5032632;28;20203;-59
2022/05/15 14:13:09;;;;;;;0.63;0.53;;;;;;;;;;5029602;28;20337;-61
2022/05/15 14:15:57;;;;;;;0.40;0.40;;;;;;;;;;5029962;28;20228;-61
2022/05/15 14:18:45;;;;;;;0.47;0.47;;;;;;;;;;5029434;28;20235;-60
2022/05/15 14:21:32;;;;;;;0.63;0.33;;;;;;;;;;5022519;28;20301;-61
2022/05/15 14:24:19;;;;;;;0.57;0.57;;;;;;;;;;5029414;28;20208;-62
2022/05/15 14:27:07;;;;;;;0.40;0.40;;;;;;;;;;5023229;28;20754;-61
2022/05/15 14:29:54;;;;;;;0.37;0.37;;;;;;;;;;5027747;28;20219;-59
2022/05/15 14:32:41;;;;;;;0.53;0.50;;;;;;;;;;5028956;28;20232;-60
2022/05/15 14:35:33;;;;;;;0.57;0.30;;;;;;;;;;5029468;28;20208;-60
2022/05/15 14:38:20;;;;;;;0.80;0.40;;;;;;;;;;5034621;28;21397;-61
2022/05/15 14:41:07;;;;;;;0.30;0.30;;;;;;;;;;5027049;28;20683;-61
2022/05/15 14:43:54;;;;;;;0.53;0.40;;;;;;;;;;5031781;28;20207;-62
2022/05/15 14:46:42;;;;;;;1.27;0.30;;;;;;;;;;5029964;28;20368;-61
2022/05/15 14:49:32;;;;;;;0.53;0.40;;;;;;;;;;5030520;28;20267;-61
2022/05/15 14:52:23;;;;;;;0.70;0.40;;;;;;;;;;5028487;28;20299;-61
2022/05/15 14:55:10;;;;;;;0.30;0.30;;;;;;;;;;5030038;28;20205;-59
2022/05/15 14:57:57;;;;;;;0.40;0.30;;;;;;;;;;5031329;28;20213;-61
2022/05/15 15:00:44;;;;;;;0.27;0.27;;;;;;;;;;5033169;28;20351;-61
2022/05/15 15:03:32;;;;;;;0.30;0.30;;;;;;;;;;5023884;28;20317;-59
2022/05/15 15:06:19;;;;;;;1.37;0.53;;;;;;;;;;5028511;28;20210;-61
2022/05/15 15:09:08;;;;;;;0.67;0.40;;;;;;;;;;5027310;28;20235;-61
2022/05/15 15:11:56;;;;;;;0.30;0.30;;;;;;;;;;5030193;28;20340;-61
2022/05/15 15:14:43;;;;;;;0.23;0.23;;;;;;;;;;5028373;28;20217;-61
2022/05/15 15:17:30;;;;;;;0.30;0.30;;;;;;;;;;5030596;28;20651;-61
2022/05/15 15:20:17;;;;;;;1.27;0.27;;;;;;;;;;5025873;28;20209;-60
2022/05/15 15:23:04;;;;;;;0.60;0.40;;;;;;;;;;5025149;28;20237;-61
2022/05/15 15:25:52;;;;;;;0.30;0.30;;;;;;;;;;5027632;28;20353;-61
2022/05/15 15:28:40;;;;;;;0.20;0.20;;;;;;;;;;5020362;28;20284;-61
2022/05/15 15:31:30;;;;;;;0.77;0.40;;;;;;;;;;5032984;28;20219;-61
2022/05/15 15:34:17;;;;;;;0.40;0.30;;;;;;;;;;5035189;28;20221;-61
2022/05/15 15:40:10;;;;;;;0.47;0.43;;;;;;;;;;5026272;28;20213;-61
2022/05/15 15:42:58;;;;;;;0.30;0.30;;;;;;;;;;5033403;28;20688;-61
2022/05/15 15:45:45;;;;;;;0.10;0.10;;;;;;;;;;5025647;28;20208;-61
2022/05/15 15:48:33;;;;;;;0.30;0.30;;;;;;;;;;5032331;28;20336;-61
2022/05/15 15:51:24;;;;;;;0.37;0.37;;;;;;;;;;5029128;28;20605;-62
2022/05/15 15:54:15;;;;;;;0.60;0.20;;;;;;;;;;5031952;28;20248;-61
2022/05/15 15:57:02;;;;;;;0.30;0.30;;;;;;;;;;5029490;28;20205;-61
2022/05/15 15:59:50;;;;;;;0.40;0.20;;;;;;;;;;5028144;28;20217;-61
2022/05/15 16:02:40;;;;;;;0.17;0.17;;;;;;;;;;5027577;28;20339;-60
2022/05/15 16:05:28;;;;;;;0.20;0.20;;;;;;;;;;5023917;28;20211;-61
2022/05/15 16:08:15;;;;;;;0.13;0.13;;;;;;;;;;5024578;28;20227;-61
2022/05/15 16:11:02;;;;;;;0.70;0.20;;;;;;;;;;5028058;28;20216;-61
2022/05/15 16:13:50;;;;;;;1.90;0.37;;;;;;;;;;5027310;28;20727;-60
2022/05/15 16:16:38;;;;;;;0.20;0.20;;;;;;;;;;5020982;28;20287;-59
2022/05/15 16:19:25;;;;;;;0.30;0.30;;;;;;;;;;5031385;28;20204;-61
2022/05/15 16:22:12;;;;;;;0.43;0.30;;;;;;;;;;5028200;28;20287;-59
2022/05/15 16:25:02;;;;;;;0.40;0.40;;;;;;;;;;5030293;28;20675;-60
2022/05/15 16:27:50;;;;;;;0.10;0.10;;;;;;;;;;5032320;28;20715;-60
2022/05/15 16:30:38;;;;;;;0.10;0.10;;;;;;;;;;5029544;28;20200;-60
2022/05/15 16:33:26;;;;;;;0.20;0.20;;;;;;;;;;5024947;28;20211;-61
2022/05/15 16:36:13;;;;;;;0.30;0.30;;;;;;;;;;5027603;28;20297;-61
2022/05/15 16:39:00;;;;;;;0.17;0.17;;;;;;;;;;5035044;28;20244;-60
2022/05/15 16:41:47;;;;;;;0.20;0.20;;;;;;;;;;5032275;28;20234;-60
2022/05/15 16:44:35;;;;;;;0.20;0.13;;;;;;;;;;5030326;28;20223;-61
2022/05/15 16:47:22;;;;;;;0.20;0.20;;;;;;;;;;5032475;28;20695;-61
2022/05/15 16:50:14;;;;;;;0.10;0.10;;;;;;;;;;5031644;28;20246;-61
2022/05/15 16:53:01;;;;;;;0.33;0.33;;;;;;;;;;5027179;28;20238;-61
2022/05/15 16:55:49;;;;;;;0.13;0.13;;;;;;;;;;5036661;28;20610;-61
2022/05/15 16:58:36;;;;;;;0.20;0.20;;;;;;;;;;5034584;28;20204;-61
2022/05/15 17:01:24;;;;;;;0.20;0.20;;;;;;;;;;5031654;28;20221;-62
2022/05/15 17:04:10;;;;;;;0.30;0.30;;;;;;;;;;5032676;28;20296;-62
2022/05/15 17:06:59;;;;;;;0.20;0.20;;;;;;;;;;5029332;28;20277;-61
2022/05/15 17:09:46;;;;;;;0.13;0.13;;;;;;;;;;5030804;28;20263;-61
2022/05/15 17:12:33;;;;;;;0.10;0.10;;;;;;;;;;5027794;28;20317;-59
2022/05/15 17:15:22;;;;;;;0.10;0.10;;;;;;;;;;5040605;28;20289;-61
2022/05/15 17:18:10;;;;;;;0.20;0.20;;;;;;;;;;5036827;28;20747;-61
2022/05/15 17:20:57;;;;;;;0.17;0.17;;;;;;;;;;5030874;28;20245;-60
2022/05/15 17:23:45;;;;;;;0.20;0.20;;;;;;;;;;5034985;28;20245;-60
2022/05/15 17:26:32;;;;;;;0.20;0.20;;;;;;;;;;5032643;28;20264;-62
2022/05/15 17:35:29;;;;;;;0.30;0.30;;;;;;;;;;5034844;28;20272;-61